sensor_id;sensor_type;location;lat;lon;timestamp;temperature;humidity
39023;DHT22;25908;51.984;5.928;2023-05-10T00:00:33;14.80;99.90
39023;DHT22;25908;51.984;5.928;2023-05-10T00:02:59;14.90;99.90
39023;DHT22;25908;51.984;5.928;2023-05-10T00:05:24;14.90;99.90
39023;DHT22;25908;51.984;5.928;2023-05-10T00:07:50;14.90;99.90
39023;DHT22;25908;51.984;5.928;2023-05-10T00:10:15;14.90;99.90
39023;DHT22;25908;51.984;5.928;2023-05-10T00:12:41;14.90;99.90
39023;DHT22;25908;51.984;5.928;2023-05-10T00:15:08;14.90;99.90
39023;DHT22;25908;51.984;5.928;2023-05-10T00:17:33;14.90;99.90
39023;DHT22;25908;51.984;5.928;2023-05-10T00:19:59;14.90;99.90
39023;DHT22;25908;51.984;5.928;2023-05-10T00:22:25;14.80;99.90
39023;DHT22;25908;51.984;5.928;2023-05-10T00:24:51;14.80;99.90
39023;DHT22;25908;51.984;5.928;2023-05-10T00:27:16;14.80;99.90
39023;DHT22;25908;51.984;5.928;2023-05-10T00:29:42;14.80;99.90
39023;DHT22;25908;51.984;5.928;2023-05-10T00:32:07;15.10;99.90
39023;DHT22;25908;51.984;5.928;2023-05-10T00:34:33;14.90;99.90
39023;DHT22;25908;51.984;5.928;2023-05-10T00:36:59;14.90;99.90
39023;DHT22;25908;51.984;5.928;2023-05-10T00:39:24;14.80;99.90
39023;DHT22;25908;51.984;5.928;2023-05-10T00:41:51;15.00;99.90
39023;DHT22;25908;51.984;5.928;2023-05-10T00:44:17;14.90;99.90
39023;DHT22;25908;51.984;5.928;2023-05-10T00:46:43;14.90;99.90
39023;DHT22;25908;51.984;5.928;2023-05-10T00:49:09;14.90;99.90
39023;DHT22;25908;51.984;5.928;2023-05-10T00:51:35;14.80;99.90
39023;DHT22;25908;51.984;5.928;2023-05-10T00:54:02;14.90;99.90
39023;DHT22;25908;51.984;5.928;2023-05-10T00:56:28;14.90;99.90
39023;DHT22;25908;51.984;5.928;2023-05-10T00:58:55;14.90;99.90
39023;DHT22;25908;51.984;5.928;2023-05-10T01:01:21;14.90;99.90
39023;DHT22;25908;51.984;5.928;2023-05-10T01:03:55;14.90;99.90
39023;DHT22;25908;51.984;5.928;2023-05-10T01:06:21;14.90;99.90
39023;DHT22;25908;51.984;5.928;2023-05-10T01:08:47;14.90;99.90
39023;DHT22;25908;51.984;5.928;2023-05-10T01:11:13;14.90;99.90
39023;DHT22;25908;51.984;5.928;2023-05-10T01:13:41;14.90;99.90
39023;DHT22;25908;51.984;5.928;2023-05-10T01:16:08;14.90;99.90
39023;DHT22;25908;51.984;5.928;2023-05-10T01:18:39;14.80;99.90
39023;DHT22;25908;51.984;5.928;2023-05-10T01:23:45;14.90;99.90
39023;DHT22;25908;51.984;5.928;2023-05-10T01:28:58;14.90;99.90
39023;DHT22;25908;51.984;5.928;2023-05-10T01:34:42;15.00;99.90
39023;DHT22;25908;51.984;5.928;2023-05-10T01:37:16;15.00;99.90
39023;DHT22;25908;51.984;5.928;2023-05-10T01:39:58;15.00;99.90
39023;DHT22;25908;51.984;5.928;2023-05-10T01:42:36;14.90;99.90
39023;DHT22;25908;51.984;5.928;2023-05-10T01:45:14;14.80;99.90
39023;DHT22;25908;51.984;5.928;2023-05-10T01:47:50;14.90;99.90
39023;DHT22;25908;51.984;5.928;2023-05-10T01:50:24;14.80;99.90
39023;DHT22;25908;51.984;5.928;2023-05-10T01:52:55;14.80;99.90
39023;DHT22;25908;51.984;5.928;2023-05-10T01:55:25;14.80;99.90
39023;DHT22;25908;51.984;5.928;2023-05-10T01:58:01;14.80;99.90
39023;DHT22;25908;51.984;5.928;2023-05-10T02:00:29;14.80;99.90
39023;DHT22;25908;51.984;5.928;2023-05-10T02:02:55;14.80;99.90
39023;DHT22;25908;51.984;5.928;2023-05-10T02:05:21;14.80;99.90
39023;DHT22;25908;51.984;5.928;2023-05-10T02:07:49;14.80;99.90
39023;DHT22;25908;51.984;5.928;2023-05-10T02:10:15;14.80;99.90
39023;DHT22;25908;51.984;5.928;2023-05-10T02:12:44;14.80;99.90
39023;DHT22;25908;51.984;5.928;2023-05-10T02:15:14;14.90;99.90
39023;DHT22;25908;51.984;5.928;2023-05-10T02:17:42;14.90;99.90
39023;DHT22;25908;51.984;5.928;2023-05-10T02:20:09;14.90;99.90
39023;DHT22;25908;51.984;5.928;2023-05-10T02:22:36;14.80;99.90
39023;DHT22;25908;51.984;5.928;2023-05-10T02:25:02;14.90;99.90
39023;DHT22;25908;51.984;5.928;2023-05-10T02:27:29;14.80;99.90
39023;DHT22;25908;51.984;5.928;2023-05-10T02:29:56;14.70;99.90
39023;DHT22;25908;51.984;5.928;2023-05-10T02:32:24;14.80;99.90
39023;DHT22;25908;51.984;5.928;2023-05-10T02:34:52;14.80;99.90
39023;DHT22;25908;51.984;5.928;2023-05-10T02:37:21;14.80;99.90
39023;DHT22;25908;51.984;5.928;2023-05-10T02:39:52;14.80;99.90
39023;DHT22;25908;51.984;5.928;2023-05-10T02:42:22;14.70;99.90
39023;DHT22;25908;51.984;5.928;2023-05-10T02:44:51;14.70;99.90
39023;DHT22;25908;51.984;5.928;2023-05-10T02:47:18;14.80;99.90
39023;DHT22;25908;51.984;5.928;2023-05-10T02:49:44;14.70;99.90
39023;DHT22;25908;51.984;5.928;2023-05-10T02:52:10;14.70;99.90
39023;DHT22;25908;51.984;5.928;2023-05-10T02:54:48;14.70;99.90
39023;DHT22;25908;51.984;5.928;2023-05-10T02:57:24;14.70;99.90
39023;DHT22;25908;51.984;5.928;2023-05-10T02:59:51;14.80;99.90
39023;DHT22;25908;51.984;5.928;2023-05-10T03:02:17;14.80;99.90
39023;DHT22;25908;51.984;5.928;2023-05-10T03:04:42;14.80;99.90
39023;DHT22;25908;51.984;5.928;2023-05-10T03:07:09;14.80;99.90
39023;DHT22;25908;51.984;5.928;2023-05-10T03:09:35;14.80;99.90
39023;DHT22;25908;51.984;5.928;2023-05-10T03:12:11;14.80;99.90
39023;DHT22;25908;51.984;5.928;2023-05-10T03:15:36;14.70;99.90
39023;DHT22;25908;51.984;5.928;2023-05-10T03:20:48;14.70;99.90
39023;DHT22;25908;51.984;5.928;2023-05-10T03:23:22;14.70;99.90
39023;DHT22;25908;51.984;5.928;2023-05-10T03:25:50;14.80;99.90
39023;DHT22;25908;51.984;5.928;2023-05-10T03:28:18;14.60;99.90
39023;DHT22;25908;51.984;5.928;2023-05-10T03:30:44;14.70;99.90
39023;DHT22;25908;51.984;5.928;2023-05-10T03:33:10;14.60;99.90
39023;DHT22;25908;51.984;5.928;2023-05-10T03:35:36;14.70;99.90
39023;DHT22;25908;51.984;5.928;2023-05-10T03:38:01;14.50;99.90
39023;DHT22;25908;51.984;5.928;2023-05-10T03:40:27;14.50;99.90
39023;DHT22;25908;51.984;5.928;2023-05-10T03:42:58;14.50;99.90
39023;DHT22;25908;51.984;5.928;2023-05-10T03:45:24;14.50;99.90
39023;DHT22;25908;51.984;5.928;2023-05-10T03:47:49;14.60;99.90
39023;DHT22;25908;51.984;5.928;2023-05-10T03:50:15;14.60;99.90
39023;DHT22;25908;51.984;5.928;2023-05-10T03:52:40;14.60;99.90
39023;DHT22;25908;51.984;5.928;2023-05-10T03:55:06;14.60;99.90
39023;DHT22;25908;51.984;5.928;2023-05-10T03:57:33;14.50;99.90
39023;DHT22;25908;51.984;5.928;2023-05-10T03:59:58;14.50;99.90
39023;DHT22;25908;51.984;5.928;2023-05-10T04:02:24;14.50;99.90
39023;DHT22;25908;51.984;5.928;2023-05-10T04:04:49;14.50;99.90
39023;DHT22;25908;51.984;5.928;2023-05-10T04:07:15;14.60;99.90
39023;DHT22;25908;51.984;5.928;2023-05-10T04:09:41;14.50;99.90
39023;DHT22;25908;51.984;5.928;2023-05-10T04:12:06;14.40;99.90
39023;DHT22;25908;51.984;5.928;2023-05-10T04:14:32;14.40;99.90
39023;DHT22;25908;51.984;5.928;2023-05-10T04:16:58;14.40;99.90
39023;DHT22;25908;51.984;5.928;2023-05-10T04:19:24;14.40;99.90
39023;DHT22;25908;51.984;5.928;2023-05-10T04:21:49;14.40;99.90
39023;DHT22;25908;51.984;5.928;2023-05-10T04:24:15;14.40;99.90
39023;DHT22;25908;51.984;5.928;2023-05-10T04:26:40;14.40;99.90
39023;DHT22;25908;51.984;5.928;2023-05-10T04:29:06;14.40;99.90
39023;DHT22;25908;51.984;5.928;2023-05-10T04:31:32;14.40;99.90
39023;DHT22;25908;51.984;5.928;2023-05-10T04:33:57;14.40;99.90
39023;DHT22;25908;51.984;5.928;2023-05-10T04:36:23;14.30;99.90
39023;DHT22;25908;51.984;5.928;2023-05-10T04:38:48;14.40;99.90
39023;DHT22;25908;51.984;5.928;2023-05-10T04:41:14;14.30;99.90
39023;DHT22;25908;51.984;5.928;2023-05-10T04:43:40;14.40;99.90
39023;DHT22;25908;51.984;5.928;2023-05-10T04:46:05;14.40;99.90
39023;DHT22;25908;51.984;5.928;2023-05-10T04:48:32;14.40;99.90
39023;DHT22;25908;51.984;5.928;2023-05-10T04:50:58;14.40;99.90
39023;DHT22;25908;51.984;5.928;2023-05-10T04:53:23;14.40;99.90
39023;DHT22;25908;51.984;5.928;2023-05-10T04:55:49;14.40;99.90
39023;DHT22;25908;51.984;5.928;2023-05-10T04:58:15;14.50;99.90
39023;DHT22;25908;51.984;5.928;2023-05-10T05:00:40;14.40;99.90
39023;DHT22;25908;51.984;5.928;2023-05-10T05:03:07;14.50;99.90
39023;DHT22;25908;51.984;5.928;2023-05-10T05:05:32;14.40;99.90
39023;DHT22;25908;51.984;5.928;2023-05-10T05:07:58;14.40;99.90
39023;DHT22;25908;51.984;5.928;2023-05-10T05:10:23;14.40;99.90
39023;DHT22;25908;51.984;5.928;2023-05-10T05:12:49;14.40;99.90
39023;DHT22;25908;51.984;5.928;2023-05-10T05:15:15;14.40;99.90
39023;DHT22;25908;51.984;5.928;2023-05-10T05:17:42;14.50;99.90
39023;DHT22;25908;51.984;5.928;2023-05-10T05:20:08;14.50;99.90
39023;DHT22;25908;51.984;5.928;2023-05-10T05:22:35;14.50;99.90
39023;DHT22;25908;51.984;5.928;2023-05-10T05:25:00;14.50;99.90
39023;DHT22;25908;51.984;5.928;2023-05-10T05:27:27;14.50;99.90
39023;DHT22;25908;51.984;5.928;2023-05-10T05:29:54;14.50;99.90
39023;DHT22;25908;51.984;5.928;2023-05-10T05:32:19;14.60;99.90
39023;DHT22;25908;51.984;5.928;2023-05-10T05:34:45;14.60;99.90
39023;DHT22;25908;51.984;5.928;2023-05-10T05:37:15;14.50;99.90
39023;DHT22;25908;51.984;5.928;2023-05-10T05:39:41;14.50;99.90
39023;DHT22;25908;51.984;5.928;2023-05-10T05:42:08;14.60;99.90
39023;DHT22;25908;51.984;5.928;2023-05-10T05:44:34;14.60;99.90
39023;DHT22;25908;51.984;5.928;2023-05-10T05:46:59;14.60;99.90
39023;DHT22;25908;51.984;5.928;2023-05-10T05:49:25;14.60;99.90
39023;DHT22;25908;51.984;5.928;2023-05-10T05:51:50;14.70;99.90
39023;DHT22;25908;51.984;5.928;2023-05-10T05:54:16;14.70;99.90
39023;DHT22;25908;51.984;5.928;2023-05-10T05:56:44;14.70;99.90
39023;DHT22;25908;51.984;5.928;2023-05-10T05:59:10;14.70;99.90
39023;DHT22;25908;51.984;5.928;2023-05-10T06:01:36;14.70;99.90
39023;DHT22;25908;51.984;5.928;2023-05-10T06:04:02;14.80;99.90
39023;DHT22;25908;51.984;5.928;2023-05-10T06:06:28;14.80;99.90
39023;DHT22;25908;51.984;5.928;2023-05-10T06:08:53;14.90;99.90
39023;DHT22;25908;51.984;5.928;2023-05-10T06:11:19;14.90;99.90
39023;DHT22;25908;51.984;5.928;2023-05-10T06:13:46;14.90;99.90
39023;DHT22;25908;51.984;5.928;2023-05-10T06:16:12;15.00;99.90
39023;DHT22;25908;51.984;5.928;2023-05-10T06:18:38;15.00;99.90
39023;DHT22;25908;51.984;5.928;2023-05-10T06:21:04;14.90;99.90
39023;DHT22;25908;51.984;5.928;2023-05-10T06:23:29;14.90;99.90
39023;DHT22;25908;51.984;5.928;2023-05-10T06:25:55;14.90;99.90
39023;DHT22;25908;51.984;5.928;2023-05-10T06:28:20;14.90;99.90
39023;DHT22;25908;51.984;5.928;2023-05-10T06:30:46;14.90;99.90
39023;DHT22;25908;51.984;5.928;2023-05-10T06:33:12;14.90;99.90
39023;DHT22;25908;51.984;5.928;2023-05-10T06:35:37;14.90;99.90
39023;DHT22;25908;51.984;5.928;2023-05-10T06:38:04;14.90;99.90
39023;DHT22;25908;51.984;5.928;2023-05-10T06:40:30;14.90;99.90
39023;DHT22;25908;51.984;5.928;2023-05-10T06:42:55;14.90;99.90
39023;DHT22;25908;51.984;5.928;2023-05-10T06:45:21;14.70;99.90
39023;DHT22;25908;51.984;5.928;2023-05-10T06:47:46;14.90;99.90
39023;DHT22;25908;51.984;5.928;2023-05-10T06:50:12;14.90;99.90
39023;DHT22;25908;51.984;5.928;2023-05-10T06:52:37;14.90;99.90
39023;DHT22;25908;51.984;5.928;2023-05-10T06:55:04;14.90;99.90
39023;DHT22;25908;51.984;5.928;2023-05-10T06:57:30;14.90;99.90
39023;DHT22;25908;51.984;5.928;2023-05-10T06:59:56;14.90;99.90
39023;DHT22;25908;51.984;5.928;2023-05-10T07:02:22;14.90;99.90
39023;DHT22;25908;51.984;5.928;2023-05-10T07:04:48;14.90;99.90
39023;DHT22;25908;51.984;5.928;2023-05-10T07:07:14;14.90;99.90
39023;DHT22;25908;51.984;5.928;2023-05-10T07:09:40;14.90;99.90
39023;DHT22;25908;51.984;5.928;2023-05-10T07:12:05;14.90;99.90
39023;DHT22;25908;51.984;5.928;2023-05-10T07:14:31;14.90;99.90
39023;DHT22;25908;51.984;5.928;2023-05-10T07:16:57;14.80;99.90
39023;DHT22;25908;51.984;5.928;2023-05-10T07:19:22;14.90;99.90
39023;DHT22;25908;51.984;5.928;2023-05-10T07:21:48;14.90;99.90
39023;DHT22;25908;51.984;5.928;2023-05-10T07:24:14;14.90;99.90
39023;DHT22;25908;51.984;5.928;2023-05-10T07:26:39;14.90;99.90
39023;DHT22;25908;51.984;5.928;2023-05-10T07:29:05;15.00;99.90
39023;DHT22;25908;51.984;5.928;2023-05-10T07:31:30;15.00;99.90
39023;DHT22;25908;51.984;5.928;2023-05-10T07:33:56;14.90;99.90
39023;DHT22;25908;51.984;5.928;2023-05-10T07:36:22;15.00;99.90
39023;DHT22;25908;51.984;5.928;2023-05-10T07:38:47;15.00;99.90
39023;DHT22;25908;51.984;5.928;2023-05-10T07:41:14;15.10;99.90
39023;DHT22;25908;51.984;5.928;2023-05-10T07:43:40;15.10;99.90
39023;DHT22;25908;51.984;5.928;2023-05-10T07:46:05;15.20;99.90
39023;DHT22;25908;51.984;5.928;2023-05-10T07:48:31;15.30;99.90
39023;DHT22;25908;51.984;5.928;2023-05-10T07:50:56;15.30;99.90
39023;DHT22;25908;51.984;5.928;2023-05-10T07:53:22;15.40;99.90
39023;DHT22;25908;51.984;5.928;2023-05-10T07:55:52;15.40;99.90
39023;DHT22;25908;51.984;5.928;2023-05-10T07:58:19;15.50;99.90
39023;DHT22;25908;51.984;5.928;2023-05-10T08:00:45;15.50;99.90
39023;DHT22;25908;51.984;5.928;2023-05-10T08:03:11;15.50;99.90
39023;DHT22;25908;51.984;5.928;2023-05-10T08:05:37;15.60;99.90
39023;DHT22;25908;51.984;5.928;2023-05-10T08:08:02;15.60;99.90
39023;DHT22;25908;51.984;5.928;2023-05-10T08:10:28;15.60;99.90
39023;DHT22;25908;51.984;5.928;2023-05-10T08:12:53;15.60;99.90
39023;DHT22;25908;51.984;5.928;2023-05-10T08:15:19;15.70;99.90
39023;DHT22;25908;51.984;5.928;2023-05-10T08:17:45;15.90;99.90
39023;DHT22;25908;51.984;5.928;2023-05-10T08:20:11;16.00;99.90
39023;DHT22;25908;51.984;5.928;2023-05-10T08:22:38;16.10;99.90
39023;DHT22;25908;51.984;5.928;2023-05-10T08:25:04;16.10;99.90
39023;DHT22;25908;51.984;5.928;2023-05-10T08:27:29;16.20;99.90
39023;DHT22;25908;51.984;5.928;2023-05-10T08:29:55;16.20;99.90
39023;DHT22;25908;51.984;5.928;2023-05-10T08:32:20;16.20;99.90
39023;DHT22;25908;51.984;5.928;2023-05-10T08:34:46;16.30;99.90
39023;DHT22;25908;51.984;5.928;2023-05-10T08:37:12;16.30;99.90
39023;DHT22;25908;51.984;5.928;2023-05-10T08:39:38;16.30;99.90
39023;DHT22;25908;51.984;5.928;2023-05-10T08:42:04;16.20;99.90
39023;DHT22;25908;51.984;5.928;2023-05-10T08:44:35;16.20;99.90
39023;DHT22;25908;51.984;5.928;2023-05-10T08:47:07;16.10;99.90
39023;DHT22;25908;51.984;5.928;2023-05-10T08:49:34;16.10;99.90
39023;DHT22;25908;51.984;5.928;2023-05-10T08:52:02;16.10;99.90
39023;DHT22;25908;51.984;5.928;2023-05-10T08:54:31;16.10;99.90
39023;DHT22;25908;51.984;5.928;2023-05-10T08:56:56;16.00;99.90
39023;DHT22;25908;51.984;5.928;2023-05-10T08:59:22;16.00;99.90
39023;DHT22;25908;51.984;5.928;2023-05-10T09:01:49;16.00;99.90
39023;DHT22;25908;51.984;5.928;2023-05-10T09:04:15;16.00;99.90
39023;DHT22;25908;51.984;5.928;2023-05-10T09:06:41;16.10;99.90
39023;DHT22;25908;51.984;5.928;2023-05-10T09:09:07;16.10;99.90
39023;DHT22;25908;51.984;5.928;2023-05-10T09:11:32;16.20;99.90
39023;DHT22;25908;51.984;5.928;2023-05-10T09:13:58;16.20;99.90
39023;DHT22;25908;51.984;5.928;2023-05-10T09:16:24;16.20;99.90
39023;DHT22;25908;51.984;5.928;2023-05-10T09:18:49;16.30;99.90
39023;DHT22;25908;51.984;5.928;2023-05-10T09:21:15;16.50;99.90
39023;DHT22;25908;51.984;5.928;2023-05-10T09:23:45;16.60;99.90
39023;DHT22;25908;51.984;5.928;2023-05-10T09:26:12;16.70;99.90
39023;DHT22;25908;51.984;5.928;2023-05-10T09:28:57;16.90;99.90
39023;DHT22;25908;51.984;5.928;2023-05-10T09:31:23;17.10;99.90
39023;DHT22;25908;51.984;5.928;2023-05-10T09:33:51;17.10;99.90
39023;DHT22;25908;51.984;5.928;2023-05-10T09:36:17;17.10;99.90
39023;DHT22;25908;51.984;5.928;2023-05-10T09:38:47;17.00;99.90
39023;DHT22;25908;51.984;5.928;2023-05-10T09:41:22;17.00;99.90
39023;DHT22;25908;51.984;5.928;2023-05-10T09:43:47;17.00;99.90
39023;DHT22;25908;51.984;5.928;2023-05-10T09:46:14;17.00;99.90
39023;DHT22;25908;51.984;5.928;2023-05-10T09:48:47;17.00;99.90
39023;DHT22;25908;51.984;5.928;2023-05-10T09:51:24;17.10;99.90
39023;DHT22;25908;51.984;5.928;2023-05-10T09:54:09;17.10;99.90
39023;DHT22;25908;51.984;5.928;2023-05-10T09:56:36;17.10;99.90
39023;DHT22;25908;51.984;5.928;2023-05-10T09:59:04;17.00;99.90
39023;DHT22;25908;51.984;5.928;2023-05-10T10:01:30;17.10;99.90
39023;DHT22;25908;51.984;5.928;2023-05-10T10:03:56;17.10;99.90
39023;DHT22;25908;51.984;5.928;2023-05-10T10:06:25;17.10;99.90
39023;DHT22;25908;51.984;5.928;2023-05-10T10:08:53;17.10;99.90
39023;DHT22;25908;51.984;5.928;2023-05-10T10:11:19;17.10;99.90
39023;DHT22;25908;51.984;5.928;2023-05-10T10:13:45;17.10;99.90
39023;DHT22;25908;51.984;5.928;2023-05-10T10:16:10;17.10;99.90
39023;DHT22;25908;51.984;5.928;2023-05-10T10:18:36;17.00;99.90
39023;DHT22;25908;51.984;5.928;2023-05-10T10:21:08;17.00;99.90
39023;DHT22;25908;51.984;5.928;2023-05-10T10:23:37;17.00;99.90
39023;DHT22;25908;51.984;5.928;2023-05-10T10:26:03;17.00;99.90
39023;DHT22;25908;51.984;5.928;2023-05-10T10:31:27;17.00;99.90
39023;DHT22;25908;51.984;5.928;2023-05-10T10:34:01;17.00;99.90
39023;DHT22;25908;51.984;5.928;2023-05-10T10:36:29;17.00;99.90
39023;DHT22;25908;51.984;5.928;2023-05-10T10:38:57;17.00;99.90
39023;DHT22;25908;51.984;5.928;2023-05-10T10:41:34;17.00;99.90
39023;DHT22;25908;51.984;5.928;2023-05-10T10:47:01;17.00;99.90
39023;DHT22;25908;51.984;5.928;2023-05-10T10:49:28;17.10;99.90
39023;DHT22;25908;51.984;5.928;2023-05-10T10:52:21;17.10;99.90
39023;DHT22;25908;51.984;5.928;2023-05-10T11:03:11;17.40;99.90
39023;DHT22;25908;51.984;5.928;2023-05-10T11:05:47;17.40;99.90
39023;DHT22;25908;51.984;5.928;2023-05-10T11:16:15;17.30;99.90
39023;DHT22;25908;51.984;5.928;2023-05-10T11:18:58;17.30;99.90
39023;DHT22;25908;51.984;5.928;2023-05-10T11:21:25;17.40;99.90
39023;DHT22;25908;51.984;5.928;2023-05-10T11:24:01;17.40;99.90
39023;DHT22;25908;51.984;5.928;2023-05-10T11:26:32;17.50;99.90
39023;DHT22;25908;51.984;5.928;2023-05-10T11:28:59;17.60;99.90
39023;DHT22;25908;51.984;5.928;2023-05-10T11:31:26;17.70;99.90
39023;DHT22;25908;51.984;5.928;2023-05-10T11:33:57;17.80;99.90
39023;DHT22;25908;51.984;5.928;2023-05-10T11:36:28;17.80;99.90
39023;DHT22;25908;51.984;5.928;2023-05-10T11:38:54;18.00;99.90
39023;DHT22;25908;51.984;5.928;2023-05-10T11:41:22;18.10;99.90
39023;DHT22;25908;51.984;5.928;2023-05-10T11:43:52;18.20;99.90
39023;DHT22;25908;51.984;5.928;2023-05-10T11:46:20;18.30;99.90
39023;DHT22;25908;51.984;5.928;2023-05-10T11:48:49;18.40;99.90
39023;DHT22;25908;51.984;5.928;2023-05-10T11:51:19;18.40;99.90
39023;DHT22;25908;51.984;5.928;2023-05-10T11:53:45;18.50;99.90
39023;DHT22;25908;51.984;5.928;2023-05-10T11:56:10;18.50;99.90
39023;DHT22;25908;51.984;5.928;2023-05-10T11:58:37;18.70;99.90
39023;DHT22;25908;51.984;5.928;2023-05-10T12:01:04;18.70;99.90
39023;DHT22;25908;51.984;5.928;2023-05-10T12:03:31;18.70;99.90
39023;DHT22;25908;51.984;5.928;2023-05-10T12:05:57;18.80;99.90
39023;DHT22;25908;51.984;5.928;2023-05-10T12:08:25;18.80;99.90
39023;DHT22;25908;51.984;5.928;2023-05-10T12:10:51;18.60;99.90
39023;DHT22;25908;51.984;5.928;2023-05-10T12:13:18;18.70;99.90
39023;DHT22;25908;51.984;5.928;2023-05-10T12:15:44;18.70;99.90
39023;DHT22;25908;51.984;5.928;2023-05-10T12:18:11;18.70;99.90
39023;DHT22;25908;51.984;5.928;2023-05-10T12:20:37;18.70;99.90
39023;DHT22;25908;51.984;5.928;2023-05-10T12:23:03;18.70;99.90
39023;DHT22;25908;51.984;5.928;2023-05-10T12:25:37;18.70;99.90
39023;DHT22;25908;51.984;5.928;2023-05-10T12:28:05;18.70;99.90
39023;DHT22;25908;51.984;5.928;2023-05-10T12:30:33;18.80;99.90
39023;DHT22;25908;51.984;5.928;2023-05-10T12:33:07;18.80;99.90
39023;DHT22;25908;51.984;5.928;2023-05-10T12:35:33;18.90;99.90
39023;DHT22;25908;51.984;5.928;2023-05-10T12:37:59;18.90;99.90
39023;DHT22;25908;51.984;5.928;2023-05-10T12:40:24;19.00;99.90
39023;DHT22;25908;51.984;5.928;2023-05-10T12:42:50;19.10;99.90
39023;DHT22;25908;51.984;5.928;2023-05-10T12:45:17;19.20;99.90
39023;DHT22;25908;51.984;5.928;2023-05-10T12:47:43;19.20;99.90
39023;DHT22;25908;51.984;5.928;2023-05-10T12:50:09;19.20;99.90
39023;DHT22;25908;51.984;5.928;2023-05-10T12:52:35;19.20;99.90
39023;DHT22;25908;51.984;5.928;2023-05-10T12:55:01;19.10;99.90
39023;DHT22;25908;51.984;5.928;2023-05-10T12:57:27;19.20;99.90
39023;DHT22;25908;51.984;5.928;2023-05-10T12:59:53;19.20;99.90
39023;DHT22;25908;51.984;5.928;2023-05-10T13:02:19;19.20;99.90
39023;DHT22;25908;51.984;5.928;2023-05-10T13:04:45;19.30;99.90
39023;DHT22;25908;51.984;5.928;2023-05-10T13:07:11;19.30;99.90
39023;DHT22;25908;51.984;5.928;2023-05-10T13:09:37;19.30;99.90
39023;DHT22;25908;51.984;5.928;2023-05-10T13:12:02;19.40;99.90
39023;DHT22;25908;51.984;5.928;2023-05-10T13:14:31;19.40;99.90
39023;DHT22;25908;51.984;5.928;2023-05-10T13:16:56;19.40;99.90
39023;DHT22;25908;51.984;5.928;2023-05-10T13:19:22;19.40;99.90
39023;DHT22;25908;51.984;5.928;2023-05-10T13:21:48;19.40;99.90
39023;DHT22;25908;51.984;5.928;2023-05-10T13:24:13;19.40;99.90
39023;DHT22;25908;51.984;5.928;2023-05-10T13:26:42;19.30;99.90
39023;DHT22;25908;51.984;5.928;2023-05-10T13:29:07;19.30;99.90
39023;DHT22;25908;51.984;5.928;2023-05-10T13:31:34;19.30;99.90
39023;DHT22;25908;51.984;5.928;2023-05-10T13:34:00;19.20;99.90
39023;DHT22;25908;51.984;5.928;2023-05-10T13:36:27;19.10;99.90
39023;DHT22;25908;51.984;5.928;2023-05-10T13:38:53;19.00;99.90
39023;DHT22;25908;51.984;5.928;2023-05-10T13:41:19;19.00;99.90
39023;DHT22;25908;51.984;5.928;2023-05-10T13:43:44;19.00;99.90
39023;DHT22;25908;51.984;5.928;2023-05-10T13:46:10;18.90;99.90
39023;DHT22;25908;51.984;5.928;2023-05-10T13:48:35;18.90;99.90
39023;DHT22;25908;51.984;5.928;2023-05-10T13:51:02;18.80;99.90
39023;DHT22;25908;51.984;5.928;2023-05-10T13:53:28;18.70;99.90
39023;DHT22;25908;51.984;5.928;2023-05-10T13:55:54;18.60;99.90
39023;DHT22;25908;51.984;5.928;2023-05-10T13:58:19;18.60;99.90
39023;DHT22;25908;51.984;5.928;2023-05-10T14:00:45;18.60;99.90
39023;DHT22;25908;51.984;5.928;2023-05-10T14:03:11;18.50;99.90
39023;DHT22;25908;51.984;5.928;2023-05-10T14:05:36;18.50;99.90
39023;DHT22;25908;51.984;5.928;2023-05-10T14:08:02;18.40;99.90
39023;DHT22;25908;51.984;5.928;2023-05-10T14:10:28;18.40;99.90
39023;DHT22;25908;51.984;5.928;2023-05-10T14:12:53;18.30;99.90
39023;DHT22;25908;51.984;5.928;2023-05-10T14:15:19;18.10;99.90
39023;DHT22;25908;51.984;5.928;2023-05-10T14:17:44;18.00;99.90
39023;DHT22;25908;51.984;5.928;2023-05-10T14:20:10;18.00;99.90
39023;DHT22;25908;51.984;5.928;2023-05-10T14:22:36;17.90;99.90
39023;DHT22;25908;51.984;5.928;2023-05-10T14:25:02;18.00;99.90
39023;DHT22;25908;51.984;5.928;2023-05-10T14:27:27;18.00;99.90
39023;DHT22;25908;51.984;5.928;2023-05-10T14:29:53;18.00;99.90
39023;DHT22;25908;51.984;5.928;2023-05-10T14:32:19;18.00;99.90
39023;DHT22;25908;51.984;5.928;2023-05-10T14:34:44;18.00;99.90
39023;DHT22;25908;51.984;5.928;2023-05-10T14:37:10;18.00;99.90
39023;DHT22;25908;51.984;5.928;2023-05-10T14:39:36;18.00;99.90
39023;DHT22;25908;51.984;5.928;2023-05-10T14:42:03;18.10;99.90
39023;DHT22;25908;51.984;5.928;2023-05-10T14:44:28;18.10;99.90
39023;DHT22;25908;51.984;5.928;2023-05-10T14:46:54;18.10;99.90
39023;DHT22;25908;51.984;5.928;2023-05-10T14:49:20;18.10;99.90
39023;DHT22;25908;51.984;5.928;2023-05-10T14:51:48;18.10;99.90
39023;DHT22;25908;51.984;5.928;2023-05-10T14:54:13;18.00;99.90
39023;DHT22;25908;51.984;5.928;2023-05-10T14:56:39;18.00;99.90
39023;DHT22;25908;51.984;5.928;2023-05-10T14:59:06;17.90;99.90
39023;DHT22;25908;51.984;5.928;2023-05-10T15:01:32;18.00;99.90
39023;DHT22;25908;51.984;5.928;2023-05-10T15:03:58;18.00;99.90
39023;DHT22;25908;51.984;5.928;2023-05-10T15:06:30;18.00;99.90
39023;DHT22;25908;51.984;5.928;2023-05-10T15:08:56;18.00;99.90
39023;DHT22;25908;51.984;5.928;2023-05-10T15:11:22;18.10;99.90
39023;DHT22;25908;51.984;5.928;2023-05-10T15:13:48;18.10;99.90
39023;DHT22;25908;51.984;5.928;2023-05-10T15:16:13;18.10;99.90
39023;DHT22;25908;51.984;5.928;2023-05-10T15:18:39;18.10;99.90
39023;DHT22;25908;51.984;5.928;2023-05-10T15:21:04;18.20;99.90
39023;DHT22;25908;51.984;5.928;2023-05-10T15:23:30;18.20;99.90
39023;DHT22;25908;51.984;5.928;2023-05-10T15:25:55;18.10;99.90
39023;DHT22;25908;51.984;5.928;2023-05-10T15:28:21;18.10;99.90
39023;DHT22;25908;51.984;5.928;2023-05-10T15:30:47;18.10;99.90
39023;DHT22;25908;51.984;5.928;2023-05-10T15:33:13;18.10;99.90
39023;DHT22;25908;51.984;5.928;2023-05-10T15:35:39;18.10;99.90
39023;DHT22;25908;51.984;5.928;2023-05-10T15:38:05;18.10;99.90
39023;DHT22;25908;51.984;5.928;2023-05-10T15:40:31;18.10;99.90
39023;DHT22;25908;51.984;5.928;2023-05-10T15:42:56;18.10;99.90
39023;DHT22;25908;51.984;5.928;2023-05-10T15:45:22;18.10;99.90
39023;DHT22;25908;51.984;5.928;2023-05-10T15:47:48;18.10;99.90
39023;DHT22;25908;51.984;5.928;2023-05-10T15:50:14;18.10;99.90
39023;DHT22;25908;51.984;5.928;2023-05-10T15:52:40;18.00;99.90
39023;DHT22;25908;51.984;5.928;2023-05-10T15:55:07;18.00;99.90
39023;DHT22;25908;51.984;5.928;2023-05-10T15:57:42;18.00;99.90
39023;DHT22;25908;51.984;5.928;2023-05-10T16:00:09;18.00;99.90
39023;DHT22;25908;51.984;5.928;2023-05-10T16:02:35;18.00;99.90